sensor_id;sensor_type;location;lat;lon;timestamp;P1;durP1;ratioP1;P2;durP2;ratioP2
64714;SDS011;51144;53.002;6.506;2022-08-07T00:00:54;3.45;;;2.92;;
64714;SDS011;51144;53.002;6.506;2022-08-07T00:03:20;4.63;;;3.13;;
64714;SDS011;51144;53.002;6.506;2022-08-07T00:05:47;6.85;;;3.53;;
64714;SDS011;51144;53.002;6.506;2022-08-07T00:08:12;3.75;;;3.05;;
64714;SDS011;51144;53.002;6.506;2022-08-07T00:10:38;3.33;;;3.03;;
64714;SDS011;51144;53.002;6.506;2022-08-07T00:13:04;3.60;;;3.30;;
64714;SDS011;51144;53.002;6.506;2022-08-07T00:15:31;6.40;;;3.38;;
64714;SDS011;51144;53.002;6.506;2022-08-07T00:17:57;5.28;;;3.00;;
64714;SDS011;51144;53.002;6.506;2022-08-07T00:20:23;3.78;;;3.28;;
64714;SDS011;51144;53.002;6.506;2022-08-07T00:22:49;5.57;;;3.15;;
64714;SDS011;51144;53.002;6.506;2022-08-07T00:25:14;5.25;;;3.22;;
64714;SDS011;51144;53.002;6.506;2022-08-07T00:27:40;3.35;;;3.15;;
64714;SDS011;51144;53.002;6.506;2022-08-07T00:30:06;3.53;;;3.22;;
64714;SDS011;51144;53.002;6.506;2022-08-07T00:32:32;3.67;;;3.42;;
64714;SDS011;51144;53.002;6.506;2022-08-07T00:34:58;3.55;;;3.25;;
64714;SDS011;51144;53.002;6.506;2022-08-07T00:37:23;8.40;;;3.60;;
64714;SDS011;51144;53.002;6.506;2022-08-07T00:39:50;4.95;;;3.20;;
64714;SDS011;51144;53.002;6.506;2022-08-07T00:42:18;3.65;;;3.35;;
64714;SDS011;51144;53.002;6.506;2022-08-07T00:44:44;3.08;;;2.78;;
64714;SDS011;51144;53.002;6.506;2022-08-07T00:47:10;5.55;;;3.20;;
64714;SDS011;51144;53.002;6.506;2022-08-07T00:49:35;5.85;;;3.55;;
64714;SDS011;51144;53.002;6.506;2022-08-07T00:52:04;5.25;;;3.20;;
64714;SDS011;51144;53.002;6.506;2022-08-07T00:54:30;2.65;;;2.45;;
64714;SDS011;51144;53.002;6.506;2022-08-07T00:56:56;1.88;;;1.55;;
64714;SDS011;51144;53.002;6.506;2022-08-07T00:59:22;2.67;;;2.22;;
64714;SDS011;51144;53.002;6.506;2022-08-07T01:01:48;4.32;;;1.83;;
64714;SDS011;51144;53.002;6.506;2022-08-07T01:04:14;2.15;;;1.95;;
64714;SDS011;51144;53.002;6.506;2022-08-07T01:06:40;2.47;;;1.92;;
64714;SDS011;51144;53.002;6.506;2022-08-07T01:09:06;1.75;;;1.58;;
64714;SDS011;51144;53.002;6.506;2022-08-07T01:11:32;1.65;;;1.45;;
64714;SDS011;51144;53.002;6.506;2022-08-07T01:13:58;4.07;;;3.35;;
64714;SDS011;51144;53.002;6.506;2022-08-07T01:16:25;6.18;;;4.60;;
64714;SDS011;51144;53.002;6.506;2022-08-07T01:18:51;5.60;;;5.03;;
64714;SDS011;51144;53.002;6.506;2022-08-07T01:21:17;5.78;;;5.25;;
64714;SDS011;51144;53.002;6.506;2022-08-07T01:23:51;5.40;;;4.90;;
64714;SDS011;51144;53.002;6.506;2022-08-07T01:26:19;7.13;;;5.07;;
64714;SDS011;51144;53.002;6.506;2022-08-07T01:28:47;6.18;;;4.22;;
64714;SDS011;51144;53.002;6.506;2022-08-07T01:31:14;4.97;;;4.50;;
64714;SDS011;51144;53.002;6.506;2022-08-07T01:33:41;5.82;;;5.32;;
64714;SDS011;51144;53.002;6.506;2022-08-07T01:36:07;5.32;;;4.70;;
64714;SDS011;51144;53.002;6.506;2022-08-07T01:38:37;5.05;;;4.55;;
64714;SDS011;51144;53.002;6.506;2022-08-07T01:41:04;5.13;;;4.18;;
64714;SDS011;51144;53.002;6.506;2022-08-07T01:43:33;6.53;;;3.97;;
64714;SDS011;51144;53.002;6.506;2022-08-07T01:46:00;5.45;;;4.45;;
64714;SDS011;51144;53.002;6.506;2022-08-07T01:48:27;5.53;;;4.45;;
64714;SDS011;51144;53.002;6.506;2022-08-07T01:50:54;5.53;;;5.03;;
64714;SDS011;51144;53.002;6.506;2022-08-07T01:53:23;4.97;;;4.50;;
64714;SDS011;51144;53.002;6.506;2022-08-07T01:55:52;5.00;;;4.32;;
64714;SDS011;51144;53.002;6.506;2022-08-07T01:58:22;5.70;;;3.90;;
64714;SDS011;51144;53.002;6.506;2022-08-07T02:00:53;4.32;;;3.72;;
64714;SDS011;51144;53.002;6.506;2022-08-07T02:03:24;4.22;;;3.80;;
64714;SDS011;51144;53.002;6.506;2022-08-07T02:06:02;6.68;;;4.80;;
64714;SDS011;51144;53.002;6.506;2022-08-07T02:08:32;3.83;;;3.53;;
64714;SDS011;51144;53.002;6.506;2022-08-07T02:11:02;4.53;;;4.20;;
64714;SDS011;51144;53.002;6.506;2022-08-07T02:13:29;5.78;;;3.42;;
64714;SDS011;51144;53.002;6.506;2022-08-07T02:15:56;5.10;;;4.00;;
64714;SDS011;51144;53.002;6.506;2022-08-07T02:18:26;4.10;;;3.70;;
64714;SDS011;51144;53.002;6.506;2022-08-07T02:20:56;3.83;;;3.47;;
64714;SDS011;51144;53.002;6.506;2022-08-07T02:23:22;3.60;;;3.10;;
64714;SDS011;51144;53.002;6.506;2022-08-07T02:25:50;4.13;;;3.72;;
64714;SDS011;51144;53.002;6.506;2022-08-07T02:28:17;4.57;;;3.92;;
64714;SDS011;51144;53.002;6.506;2022-08-07T02:30:44;4.53;;;4.13;;
64714;SDS011;51144;53.002;6.506;2022-08-07T02:33:11;4.93;;;4.03;;
64714;SDS011;51144;53.002;6.506;2022-08-07T02:35:39;4.35;;;3.97;;
64714;SDS011;51144;53.002;6.506;2022-08-07T02:38:05;4.65;;;3.75;;
64714;SDS011;51144;53.002;6.506;2022-08-07T02:40:32;4.70;;;4.30;;
64714;SDS011;51144;53.002;6.506;2022-08-07T02:42:58;5.00;;;4.60;;
64714;SDS011;51144;53.002;6.506;2022-08-07T02:45:25;8.98;;;5.40;;
64714;SDS011;51144;53.002;6.506;2022-08-07T02:47:54;5.80;;;5.00;;
64714;SDS011;51144;53.002;6.506;2022-08-07T02:50:20;6.10;;;5.07;;
64714;SDS011;51144;53.002;6.506;2022-08-07T02:52:52;7.03;;;5.38;;
64714;SDS011;51144;53.002;6.506;2022-08-07T02:55:21;4.38;;;4.07;;
64714;SDS011;51144;53.002;6.506;2022-08-07T02:57:49;6.15;;;5.22;;
64714;SDS011;51144;53.002;6.506;2022-08-07T03:00:16;5.22;;;4.60;;
64714;SDS011;51144;53.002;6.506;2022-08-07T03:02:43;5.13;;;4.72;;
64714;SDS011;51144;53.002;6.506;2022-08-07T03:05:11;5.63;;;5.18;;
64714;SDS011;51144;53.002;6.506;2022-08-07T03:07:38;4.90;;;4.32;;
64714;SDS011;51144;53.002;6.506;2022-08-07T03:10:05;5.03;;;4.53;;
64714;SDS011;51144;53.002;6.506;2022-08-07T03:12:32;6.72;;;4.75;;
64714;SDS011;51144;53.002;6.506;2022-08-07T03:14:59;6.38;;;4.57;;
64714;SDS011;51144;53.002;6.506;2022-08-07T03:17:25;5.13;;;4.45;;
64714;SDS011;51144;53.002;6.506;2022-08-07T03:19:51;4.60;;;3.92;;
64714;SDS011;51144;53.002;6.506;2022-08-07T03:22:18;4.00;;;3.70;;
64714;SDS011;51144;53.002;6.506;2022-08-07T03:24:45;4.30;;;3.90;;
64714;SDS011;51144;53.002;6.506;2022-08-07T03:27:11;7.78;;;3.88;;
64714;SDS011;51144;53.002;6.506;2022-08-07T03:29:39;5.57;;;3.42;;
64714;SDS011;51144;53.002;6.506;2022-08-07T03:32:13;3.78;;;3.47;;
64714;SDS011;51144;53.002;6.506;2022-08-07T03:34:44;3.88;;;3.05;;
64714;SDS011;51144;53.002;6.506;2022-08-07T03:37:12;3.33;;;2.97;;
64714;SDS011;51144;53.002;6.506;2022-08-07T03:39:40;3.92;;;3.47;;
64714;SDS011;51144;53.002;6.506;2022-08-07T03:42:06;2.83;;;2.63;;
64714;SDS011;51144;53.002;6.506;2022-08-07T03:44:32;4.38;;;3.35;;
64714;SDS011;51144;53.002;6.506;2022-08-07T03:47:02;4.00;;;3.33;;
64714;SDS011;51144;53.002;6.506;2022-08-07T03:49:29;4.00;;;3.67;;
64714;SDS011;51144;53.002;6.506;2022-08-07T03:51:55;4.03;;;3.08;;
64714;SDS011;51144;53.002;6.506;2022-08-07T03:54:22;3.15;;;2.83;;
64714;SDS011;51144;53.002;6.506;2022-08-07T03:56:48;3.25;;;2.17;;
64714;SDS011;51144;53.002;6.506;2022-08-07T03:59:16;2.95;;;2.13;;
64714;SDS011;51144;53.002;6.506;2022-08-07T04:01:43;3.20;;;2.90;;
64714;SDS011;51144;53.002;6.506;2022-08-07T04:04:09;4.95;;;2.95;;
64714;SDS011;51144;53.002;6.506;2022-08-07T04:06:36;3.90;;;2.90;;
64714;SDS011;51144;53.002;6.506;2022-08-07T04:09:06;5.53;;;2.22;;
64714;SDS011;51144;53.002;6.506;2022-08-07T04:11:35;3.08;;;2.53;;
64714;SDS011;51144;53.002;6.506;2022-08-07T04:14:02;2.20;;;2.00;;
64714;SDS011;51144;53.002;6.506;2022-08-07T04:16:28;2.75;;;1.92;;
64714;SDS011;51144;53.002;6.506;2022-08-07T04:18:57;2.83;;;2.63;;
64714;SDS011;51144;53.002;6.506;2022-08-07T04:21:24;2.75;;;2.20;;
64714;SDS011;51144;53.002;6.506;2022-08-07T04:23:49;3.80;;;2.95;;
64714;SDS011;51144;53.002;6.506;2022-08-07T04:26:16;3.28;;;2.65;;
64714;SDS011;51144;53.002;6.506;2022-08-07T04:28:42;2.70;;;2.45;;
64714;SDS011;51144;53.002;6.506;2022-08-07T04:31:08;2.08;;;1.88;;
64714;SDS011;51144;53.002;6.506;2022-08-07T04:33:35;2.75;;;2.00;;
64714;SDS011;51144;53.002;6.506;2022-08-07T04:36:02;3.15;;;2.15;;
64714;SDS011;51144;53.002;6.506;2022-08-07T04:38:28;2.33;;;2.13;;
64714;SDS011;51144;53.002;6.506;2022-08-07T04:40:54;2.97;;;2.78;;
64714;SDS011;51144;53.002;6.506;2022-08-07T04:43:21;4.05;;;2.70;;
64714;SDS011;51144;53.002;6.506;2022-08-07T04:46:02;4.68;;;2.60;;
64714;SDS011;51144;53.002;6.506;2022-08-07T04:51:32;4.68;;;3.97;;
64714;SDS011;51144;53.002;6.506;2022-08-07T04:57:06;4.60;;;3.60;;
64714;SDS011;51144;53.002;6.506;2022-08-07T04:59:48;4.60;;;3.60;;
64714;SDS011;51144;53.002;6.506;2022-08-07T05:02:39;5.43;;;3.20;;
64714;SDS011;51144;53.002;6.506;2022-08-07T05:05:30;3.45;;;3.15;;
64714;SDS011;51144;53.002;6.506;2022-08-07T05:11:10;3.75;;;3.42;;
64714;SDS011;51144;53.002;6.506;2022-08-07T05:13:44;4.18;;;3.88;;
64714;SDS011;51144;53.002;6.506;2022-08-07T05:16:27;4.00;;;3.60;;
64714;SDS011;51144;53.002;6.506;2022-08-07T05:18:57;6.00;;;3.97;;
64714;SDS011;51144;53.002;6.506;2022-08-07T05:21:27;4.82;;;3.63;;
64714;SDS011;51144;53.002;6.506;2022-08-07T05:23:59;4.65;;;4.28;;
64714;SDS011;51144;53.002;6.506;2022-08-07T05:26:28;5.47;;;4.57;;
64714;SDS011;51144;53.002;6.506;2022-08-07T05:28:56;4.57;;;4.18;;
64714;SDS011;51144;53.002;6.506;2022-08-07T05:31:28;4.47;;;3.95;;
64714;SDS011;51144;53.002;6.506;2022-08-07T05:33:58;6.32;;;3.72;;
64714;SDS011;51144;53.002;6.506;2022-08-07T05:36:25;5.85;;;4.03;;
64714;SDS011;51144;53.002;6.506;2022-08-07T05:38:52;4.97;;;4.57;;
64714;SDS011;51144;53.002;6.506;2022-08-07T05:41:18;4.88;;;4.45;;
64714;SDS011;51144;53.002;6.506;2022-08-07T05:43:45;5.70;;;4.82;;
64714;SDS011;51144;53.002;6.506;2022-08-07T05:46:14;7.22;;;4.97;;
64714;SDS011;51144;53.002;6.506;2022-08-07T05:48:41;6.10;;;5.07;;
64714;SDS011;51144;53.002;6.506;2022-08-07T05:51:08;5.25;;;4.75;;
64714;SDS011;51144;53.002;6.506;2022-08-07T05:53:35;6.90;;;4.38;;
64714;SDS011;51144;53.002;6.506;2022-08-07T05:56:00;6.32;;;4.43;;
64714;SDS011;51144;53.002;6.506;2022-08-07T05:58:27;6.15;;;5.20;;
64714;SDS011;51144;53.002;6.506;2022-08-07T06:00:53;5.78;;;5.10;;
64714;SDS011;51144;53.002;6.506;2022-08-07T06:03:21;5.40;;;4.95;;
64714;SDS011;51144;53.002;6.506;2022-08-07T06:05:47;5.82;;;5.20;;
64714;SDS011;51144;53.002;6.506;2022-08-07T06:08:14;5.53;;;4.90;;
64714;SDS011;51144;53.002;6.506;2022-08-07T06:10:41;5.28;;;4.32;;
64714;SDS011;51144;53.002;6.506;2022-08-07T06:13:07;6.35;;;4.90;;
64714;SDS011;51144;53.002;6.506;2022-08-07T06:15:34;4.88;;;4.45;;
64714;SDS011;51144;53.002;6.506;2022-08-07T06:18:00;4.90;;;4.50;;
64714;SDS011;51144;53.002;6.506;2022-08-07T06:20:27;5.32;;;4.78;;
64714;SDS011;51144;53.002;6.506;2022-08-07T06:22:54;5.93;;;4.72;;
64714;SDS011;51144;53.002;6.506;2022-08-07T06:25:21;7.68;;;4.32;;
64714;SDS011;51144;53.002;6.506;2022-08-07T06:27:47;4.80;;;4.50;;
64714;SDS011;51144;53.002;6.506;2022-08-07T06:30:13;4.70;;;4.30;;
64714;SDS011;51144;53.002;6.506;2022-08-07T06:32:39;4.63;;;4.32;;
64714;SDS011;51144;53.002;6.506;2022-08-07T06:35:04;4.72;;;3.95;;
64714;SDS011;51144;53.002;6.506;2022-08-07T06:37:30;9.48;;;5.00;;
64714;SDS011;51144;53.002;6.506;2022-08-07T06:39:56;4.88;;;4.40;;
64714;SDS011;51144;53.002;6.506;2022-08-07T06:42:30;5.18;;;4.63;;
64714;SDS011;51144;53.002;6.506;2022-08-07T06:45:01;5.00;;;4.55;;
64714;SDS011;51144;53.002;6.506;2022-08-07T06:47:30;5.55;;;4.10;;
64714;SDS011;51144;53.002;6.506;2022-08-07T06:49:56;6.10;;;4.15;;
64714;SDS011;51144;53.002;6.506;2022-08-07T06:52:22;4.80;;;3.65;;
64714;SDS011;51144;53.002;6.506;2022-08-07T06:54:51;4.32;;;3.40;;
64714;SDS011;51144;53.002;6.506;2022-08-07T06:57:17;7.00;;;4.13;;
64714;SDS011;51144;53.002;6.506;2022-08-07T06:59:45;4.00;;;3.70;;
64714;SDS011;51144;53.002;6.506;2022-08-07T07:02:17;6.10;;;3.65;;
64714;SDS011;51144;53.002;6.506;2022-08-07T07:04:44;7.53;;;4.57;;
64714;SDS011;51144;53.002;6.506;2022-08-07T07:07:10;5.22;;;4.63;;
64714;SDS011;51144;53.002;6.506;2022-08-07T07:09:36;4.57;;;4.18;;
64714;SDS011;51144;53.002;6.506;2022-08-07T07:14:35;4.80;;;3.83;;
64714;SDS011;51144;53.002;6.506;2022-08-07T07:17:03;4.03;;;3.63;;
64714;SDS011;51144;53.002;6.506;2022-08-07T07:19:38;6.20;;;3.53;;
64714;SDS011;51144;53.002;6.506;2022-08-07T07:22:08;3.50;;;3.15;;
64714;SDS011;51144;53.002;6.506;2022-08-07T07:24:35;4.13;;;2.88;;
64714;SDS011;51144;53.002;6.506;2022-08-07T07:27:02;3.33;;;2.42;;
64714;SDS011;51144;53.002;6.506;2022-08-07T07:29:31;2.38;;;2.05;;
64714;SDS011;51144;53.002;6.506;2022-08-07T07:32:00;5.93;;;2.97;;
64714;SDS011;51144;53.002;6.506;2022-08-07T07:34:29;2.90;;;1.23;;
64714;SDS011;51144;53.002;6.506;2022-08-07T07:36:57;3.53;;;1.00;;
64714;SDS011;51144;53.002;6.506;2022-08-07T07:39:25;3.53;;;1.30;;
64714;SDS011;51144;53.002;6.506;2022-08-07T07:41:53;1.30;;;1.00;;
64714;SDS011;51144;53.002;6.506;2022-08-07T07:44:20;3.15;;;2.20;;
64714;SDS011;51144;53.002;6.506;2022-08-07T07:46:48;2.55;;;0.85;;
64714;SDS011;51144;53.002;6.506;2022-08-07T07:49:16;1.30;;;0.60;;
64714;SDS011;51144;53.002;6.506;2022-08-07T07:51:43;1.60;;;0.85;;
64714;SDS011;51144;53.002;6.506;2022-08-07T07:54:12;3.22;;;1.17;;
64714;SDS011;51144;53.002;6.506;2022-08-07T07:56:41;1.25;;;1.02;;
64714;SDS011;51144;53.002;6.506;2022-08-07T07:59:08;1.13;;;0.90;;
64714;SDS011;51144;53.002;6.506;2022-08-07T08:01:37;1.83;;;0.80;;
64714;SDS011;51144;53.002;6.506;2022-08-07T08:04:06;1.75;;;1.02;;
64714;SDS011;51144;53.002;6.506;2022-08-07T08:06:32;7.07;;;2.13;;
64714;SDS011;51144;53.002;6.506;2022-08-07T08:09:00;4.38;;;1.30;;
64714;SDS011;51144;53.002;6.506;2022-08-07T08:11:28;2.88;;;1.23;;
64714;SDS011;51144;53.002;6.506;2022-08-07T08:13:55;2.95;;;1.30;;
64714;SDS011;51144;53.002;6.506;2022-08-07T08:16:21;2.40;;;1.20;;
64714;SDS011;51144;53.002;6.506;2022-08-07T08:18:50;3.08;;;0.82;;
64714;SDS011;51144;53.002;6.506;2022-08-07T08:21:19;1.65;;;1.40;;
64714;SDS011;51144;53.002;6.506;2022-08-07T08:24:04;1.33;;;1.20;;
64714;SDS011;51144;53.002;6.506;2022-08-07T08:26:50;2.92;;;1.60;;
64714;SDS011;51144;53.002;6.506;2022-08-07T08:29:40;5.65;;;1.60;;
64714;SDS011;51144;53.002;6.506;2022-08-07T08:32:09;4.10;;;1.63;;
64714;SDS011;51144;53.002;6.506;2022-08-07T08:34:40;2.35;;;0.85;;
64714;SDS011;51144;53.002;6.506;2022-08-07T08:37:13;3.17;;;0.93;;
64714;SDS011;51144;53.002;6.506;2022-08-07T08:39:41;1.17;;;1.05;;
64714;SDS011;51144;53.002;6.506;2022-08-07T08:42:18;3.05;;;1.40;;
64714;SDS011;51144;53.002;6.506;2022-08-07T08:47:51;2.77;;;1.43;;
64714;SDS011;51144;53.002;6.506;2022-08-07T08:50:44;1.30;;;1.20;;
64714;SDS011;51144;53.002;6.506;2022-08-07T08:53:33;1.42;;;0.68;;
64714;SDS011;51144;53.002;6.506;2022-08-07T08:56:20;1.77;;;1.45;;
64714;SDS011;51144;53.002;6.506;2022-08-07T08:59:08;2.60;;;0.98;;
64714;SDS011;51144;53.002;6.506;2022-08-07T09:01:43;2.40;;;0.98;;
64714;SDS011;51144;53.002;6.506;2022-08-07T09:04:30;2.67;;;1.30;;
64714;SDS011;51144;53.002;6.506;2022-08-07T09:17:52;1.10;;;0.70;;
64714;SDS011;51144;53.002;6.506;2022-08-07T09:23:40;0.90;;;0.70;;
64714;SDS011;51144;53.002;6.506;2022-08-07T09:37:59;1.63;;;0.60;;
64714;SDS011;51144;53.002;6.506;2022-08-07T09:43:32;1.52;;;0.70;;
64714;SDS011;51144;53.002;6.506;2022-08-07T09:54:46;1.92;;;0.75;;
64714;SDS011;51144;53.002;6.506;2022-08-07T09:57:29;1.05;;;0.50;;
64714;SDS011;51144;53.002;6.506;2022-08-07T10:00:20;1.00;;;0.63;;
64714;SDS011;51144;53.002;6.506;2022-08-07T10:02:53;3.40;;;0.77;;
64714;SDS011;51144;53.002;6.506;2022-08-07T10:08:33;1.30;;;0.73;;
64714;SDS011;51144;53.002;6.506;2022-08-07T10:14:01;2.72;;;0.75;;
64714;SDS011;51144;53.002;6.506;2022-08-07T10:17:06;1.30;;;0.47;;
64714;SDS011;51144;53.002;6.506;2022-08-07T10:31:48;1.50;;;0.35;;
64714;SDS011;51144;53.002;6.506;2022-08-07T10:34:41;1.15;;;0.47;;
64714;SDS011;51144;53.002;6.506;2022-08-07T10:40:28;2.20;;;0.38;;
64714;SDS011;51144;53.002;6.506;2022-08-07T10:43:11;1.40;;;0.30;;
64714;SDS011;51144;53.002;6.506;2022-08-07T10:45:48;1.98;;;0.40;;
64714;SDS011;51144;53.002;6.506;2022-08-07T11:10:28;2.50;;;0.30;;
64714;SDS011;51144;53.002;6.506;2022-08-07T11:15:58;2.78;;;0.40;;
64714;SDS011;51144;53.002;6.506;2022-08-07T11:18:38;0.80;;;0.32;;
64714;SDS011;51144;53.002;6.506;2022-08-07T11:30:12;0.88;;;0.30;;
64714;SDS011;51144;53.002;6.506;2022-08-07T11:32:15;0.70;;;0.30;;
64714;SDS011;51144;53.002;6.506;2022-08-07T11:40:17;1.27;;;0.30;;
64714;SDS011;51144;53.002;6.506;2022-08-07T11:43:18;1.27;;;0.38;;
64714;SDS011;51144;53.002;6.506;2022-08-07T11:51:32;1.70;;;0.43;;
64714;SDS011;51144;53.002;6.506;2022-08-07T11:54:35;1.33;;;0.20;;
64714;SDS011;51144;53.002;6.506;2022-08-07T11:57:43;0.75;;;0.30;;
64714;SDS011;51144;53.002;6.506;2022-08-07T12:00:18;1.20;;;0.28;;
64714;SDS011;51144;53.002;6.506;2022-08-07T12:06:03;1.33;;;0.20;;
64714;SDS011;51144;53.002;6.506;2022-08-07T12:11:41;2.35;;;0.30;;
64714;SDS011;51144;53.002;6.506;2022-08-07T12:14:12;1.33;;;0.30;;
64714;SDS011;51144;53.002;6.506;2022-08-07T12:16:45;3.47;;;0.30;;
64714;SDS011;51144;53.002;6.506;2022-08-07T12:19:26;1.50;;;0.40;;
64714;SDS011;51144;53.002;6.506;2022-08-07T12:28:14;1.35;;;0.20;;
64714;SDS011;51144;53.002;6.506;2022-08-07T12:30:43;1.08;;;0.32;;
64714;SDS011;51144;53.002;6.506;2022-08-07T12:33:16;1.85;;;0.30;;
64714;SDS011;51144;53.002;6.506;2022-08-07T12:35:46;0.80;;;0.20;;
64714;SDS011;51144;53.002;6.506;2022-08-07T12:38:14;2.38;;;0.20;;
64714;SDS011;51144;53.002;6.506;2022-08-07T12:40:43;0.52;;;0.13;;
64714;SDS011;51144;53.002;6.506;2022-08-07T12:43:11;0.77;;;0.13;;
64714;SDS011;51144;53.002;6.506;2022-08-07T12:45:44;0.40;;;0.20;;
64714;SDS011;51144;53.002;6.506;2022-08-07T12:51:17;0.93;;;0.10;;
64714;SDS011;51144;53.002;6.506;2022-08-07T12:53:54;0.82;;;0.10;;
64714;SDS011;51144;53.002;6.506;2022-08-07T12:56:41;0.38;;;0.17;;
64714;SDS011;51144;53.002;6.506;2022-08-07T12:59:10;0.75;;;0.20;;
64714;SDS011;51144;53.002;6.506;2022-08-07T13:01:57;2.53;;;0.20;;
64714;SDS011;51144;53.002;6.506;2022-08-07T13:04:43;1.08;;;0.30;;
64714;SDS011;51144;53.002;6.506;2022-08-07T13:21:55;2.08;;;0.30;;
64714;SDS011;51144;53.002;6.506;2022-08-07T13:24:44;0.80;;;0.50;;
64714;SDS011;51144;53.002;6.506;2022-08-07T13:27:22;0.93;;;0.30;;
64714;SDS011;51144;53.002;6.506;2022-08-07T13:30:03;1.08;;;0.35;;
64714;SDS011;51144;53.002;6.506;2022-08-07T13:35:29;3.15;;;0.55;;
64714;SDS011;51144;53.002;6.506;2022-08-07T13:40:41;1.25;;;0.30;;
64714;SDS011;51144;53.002;6.506;2022-08-07T13:43:17;3.33;;;0.73;;
64714;SDS011;51144;53.002;6.506;2022-08-07T13:45:45;2.45;;;0.35;;
64714;SDS011;51144;53.002;6.506;2022-08-07T13:48:16;1.45;;;0.40;;
64714;SDS011;51144;53.002;6.506;2022-08-07T13:50:48;1.95;;;0.40;;
64714;SDS011;51144;53.002;6.506;2022-08-07T13:53:48;19.05;;;0.80;;
64714;SDS011;51144;53.002;6.506;2022-08-07T13:56:10;3.38;;;0.70;;
64714;SDS011;51144;53.002;6.506;2022-08-07T13:58:40;1.85;;;1.10;;
64714;SDS011;51144;53.002;6.506;2022-08-07T14:04:11;1.50;;;0.50;;
64714;SDS011;51144;53.002;6.506;2022-08-07T14:06:40;1.10;;;0.40;;
64714;SDS011;51144;53.002;6.506;2022-08-07T14:12:00;1.58;;;0.45;;
64714;SDS011;51144;53.002;6.506;2022-08-07T14:14:34;2.58;;;0.90;;
64714;SDS011;51144;53.002;6.506;2022-08-07T14:17:09;1.48;;;0.43;;
64714;SDS011;51144;53.002;6.506;2022-08-07T14:19:43;1.10;;;0.45;;
64714;SDS011;51144;53.002;6.506;2022-08-07T14:22:15;1.15;;;0.60;;
64714;SDS011;51144;53.002;6.506;2022-08-07T14:24:50;2.17;;;0.60;;
64714;SDS011;51144;53.002;6.506;2022-08-07T14:27:20;2.00;;;0.65;;
64714;SDS011;51144;53.002;6.506;2022-08-07T14:30:15;2.72;;;0.60;;
64714;SDS011;51144;53.002;6.506;2022-08-07T14:32:46;2.55;;;0.73;;
64714;SDS011;51144;53.002;6.506;2022-08-07T14:35:18;3.63;;;0.73;;
64714;SDS011;51144;53.002;6.506;2022-08-07T14:37:52;3.17;;;1.05;;
64714;SDS011;51144;53.002;6.506;2022-08-07T14:40:19;2.75;;;0.68;;
64714;SDS011;51144;53.002;6.506;2022-08-07T14:42:51;5.20;;;0.77;;
64714;SDS011;51144;53.002;6.506;2022-08-07T14:45:20;2.42;;;0.30;;
64714;SDS011;51144;53.002;6.506;2022-08-07T14:47:49;4.43;;;0.75;;
64714;SDS011;51144;53.002;6.506;2022-08-07T14:50:16;1.58;;;0.93;;
64714;SDS011;51144;53.002;6.506;2022-08-07T14:52:44;1.73;;;0.63;;
64714;SDS011;51144;53.002;6.506;2022-08-07T14:55:14;1.38;;;0.40;;
64714;SDS011;51144;53.002;6.506;2022-08-07T14:57:40;3.05;;;0.93;;
64714;SDS011;51144;53.002;6.506;2022-08-07T15:00:08;1.98;;;0.30;;
64714;SDS011;51144;53.002;6.506;2022-08-07T15:02:34;2.05;;;0.45;;
64714;SDS011;51144;53.002;6.506;2022-08-07T15:05:02;2.15;;;0.30;;
64714;SDS011;51144;53.002;6.506;2022-08-07T15:07:29;2.95;;;0.38;;
64714;SDS011;51144;53.002;6.506;2022-08-07T15:09:56;0.98;;;0.30;;
64714;SDS011;51144;53.002;6.506;2022-08-07T15:12:28;1.60;;;0.68;;
64714;SDS011;51144;53.002;6.506;2022-08-07T15:15:06;2.28;;;0.40;;
64714;SDS011;51144;53.002;6.506;2022-08-07T15:17:36;2.00;;;0.20;;
64714;SDS011;51144;53.002;6.506;2022-08-07T15:20:05;1.27;;;0.32;;
64714;SDS011;51144;53.002;6.506;2022-08-07T15:22:45;2.15;;;0.30;;
64714;SDS011;51144;53.002;6.506;2022-08-07T15:25:13;1.27;;;0.22;;
64714;SDS011;51144;53.002;6.506;2022-08-07T15:27:44;2.75;;;0.30;;
64714;SDS011;51144;53.002;6.506;2022-08-07T15:30:16;1.98;;;0.20;;
64714;SDS011;51144;53.002;6.506;2022-08-07T15:32:43;0.95;;;0.30;;
64714;SDS011;51144;53.002;6.506;2022-08-07T15:35:15;2.53;;;0.20;;
64714;SDS011;51144;53.002;6.506;2022-08-07T15:37:48;0.98;;;0.20;;
64714;SDS011;51144;53.002;6.506;2022-08-07T15:40:16;3.97;;;0.60;;
64714;SDS011;51144;53.002;6.506;2022-08-07T15:45:13;1.23;;;0.20;;
64714;SDS011;51144;53.002;6.506;2022-08-07T15:47:47;1.15;;;0.20;;
64714;SDS011;51144;53.002;6.506;2022-08-07T15:50:28;2.13;;;0.45;;
64714;SDS011;51144;53.002;6.506;2022-08-07T15:53:06;1.58;;;0.40;;
64714;SDS011;51144;53.002;6.506;2022-08-07T15:55:42;3.22;;;0.50;;
64714;SDS011;51144;53.002;6.506;2022-08-07T15:58:12;2.33;;;0.40;;
64714;SDS011;51144;53.002;6.506;2022-08-07T16:00:39;1.10;;;0.30;;
64714;SDS011;51144;53.002;6.506;2022-08-07T16:03:17;1.25;;;0.30;;
64714;SDS011;51144;53.002;6.506;2022-08-07T16:05:45;2.03;;;0.50;;
64714;SDS011;51144;53.002;6.506;2022-08-07T16:08:22;3.90;;;0.30;;
64714;SDS011;51144;53.002;6.506;2022-08-07T16:10:57;2.10;;;0.40;;
64714;SDS011;51144;53.002;6.506;2022-08-07T16:13:36;0.95;;;0.20;;
64714;SDS011;51144;53.002;6.506;2022-08-07T16:16:31;1.85;;;0.30;;
64714;SDS011;51144;53.002;6.506;2022-08-07T16:19:29;1.05;;;0.40;;
64714;SDS011;51144;53.002;6.506;2022-08-07T16:27:46;1.85;;;0.30;;
64714;SDS011;51144;53.002;6.506;2022-08-07T16:30:23;1.52;;;0.20;;
64714;SDS011;51144;53.002;6.506;2022-08-07T16:33:02;1.83;;;0.40;;
64714;SDS011;51144;53.002;6.506;2022-08-07T16:35:45;3.25;;;0.43;;
64714;SDS011;51144;53.002;6.506;2022-08-07T16:41:08;3.85;;;0.85;;
64714;SDS011;51144;53.002;6.506;2022-08-07T16:47:09;0.90;;;0.40;;
64714;SDS011;51144;53.002;6.506;2022-08-07T16:54:54;1.60;;;0.30;;
64714;SDS011;51144;53.002;6.506;2022-08-07T16:57:43;3.28;;;0.40;;
64714;SDS011;51144;53.002;6.506;2022-08-07T17:00:24;3.08;;;0.40;;
64714;SDS011;51144;53.002;6.506;2022-08-07T17:03:19;1.73;;;0.40;;
64714;SDS011;51144;53.002;6.506;2022-08-07T17:08:33;6.10;;;0.40;;
64714;SDS011;51144;53.002;6.506;2022-08-07T17:11:03;3.08;;;0.40;;
64714;SDS011;51144;53.002;6.506;2022-08-07T17:13:41;3.85;;;0.40;;
64714;SDS011;51144;53.002;6.506;2022-08-07T17:16:19;3.78;;;0.68;;
64714;SDS011;51144;53.002;6.506;2022-08-07T17:21:47;1.38;;;0.50;;
64714;SDS011;51144;53.002;6.506;2022-08-07T17:24:22;3.45;;;1.13;;
64714;SDS011;51144;53.002;6.506;2022-08-07T17:29:35;3.25;;;1.35;;
64714;SDS011;51144;53.002;6.506;2022-08-07T17:32:30;4.13;;;1.33;;
64714;SDS011;51144;53.002;6.506;2022-08-07T17:35:12;4.80;;;0.98;;
64714;SDS011;51144;53.002;6.506;2022-08-07T17:40:44;3.30;;;1.25;;
64714;SDS011;51144;53.002;6.506;2022-08-07T17:43:32;3.53;;;1.05;;
64714;SDS011;51144;53.002;6.506;2022-08-07T17:46:11;3.92;;;1.42;;
64714;SDS011;51144;53.002;6.506;2022-08-07T17:51:37;2.50;;;1.05;;
64714;SDS011;51144;53.002;6.506;2022-08-07T17:54:26;4.45;;;1.45;;
64714;SDS011;51144;53.002;6.506;2022-08-07T17:57:03;4.65;;;1.40;;
64714;SDS011;51144;53.002;6.506;2022-08-07T18:02:09;7.57;;;1.20;;
64714;SDS011;51144;53.002;6.506;2022-08-07T18:04:43;5.43;;;1.20;;
64714;SDS011;51144;53.002;6.506;2022-08-07T18:07:20;14.27;;;2.03;;
64714;SDS011;51144;53.002;6.506;2022-08-07T18:12:52;1.67;;;0.85;;
64714;SDS011;51144;53.002;6.506;2022-08-07T18:15:39;4.00;;;1.90;;
64714;SDS011;51144;53.002;6.506;2022-08-07T18:18:16;3.75;;;0.90;;
64714;SDS011;51144;53.002;6.506;2022-08-07T18:20:56;7.35;;;1.00;;
64714;SDS011;51144;53.002;6.506;2022-08-07T18:23:33;4.40;;;1.23;;
64714;SDS011;51144;53.002;6.506;2022-08-07T18:26:17;4.50;;;1.40;;
64714;SDS011;51144;53.002;6.506;2022-08-07T18:46:16;3.97;;;1.00;;
64714;SDS011;51144;53.002;6.506;2022-08-07T18:48:53;3.20;;;0.85;;
64714;SDS011;51144;53.002;6.506;2022-08-07T18:57:19;5.10;;;1.25;;